Du har inga inställningar för hoppväder.nu

Hoppväder.nu

Senast uppdaterat 04:35

UTC-tid

2020-11-26 kl. 03:35


Sol och måne

Solen går upp 9:04 och går ner 14:33 (beräknade cirkatider)
Nästa fullmåne blir om 4 dagar (2020-11-30)

METAR

ESNZ (Åre/Östersunds)
(15 minuter sedan)
ESNZ 260320Z AUTO 29009KT 9999 FEW017/// OVC028/// 03/00 Q1003 REUP=















TAF

ESNZ (Åre/Östersunds)
ESNZ





Kodnycklar till TAF och METAR






LHP

(Östersund är område se41d i Delområde 4)

Prognos är inte uppdaterad






Preliminär prognos